Time;durP1;ratioP1;P1;durP2;ratioP2;P2;SDS_P1;SDS_P2;PMS_P1;PMS_P2;Temp;Humidity;BMP_temperature;BMP_pressure;BME280_temperature;BME280_humidity;BME280_pressure;Samples;Min_cycle;Max_cycle;Signal;HPM_P1;HPM_P2
2021/03/02 00:00:43;;;;;;;73.93;32.33;;;;;;;2.10;90.09;103065.53;5133460;27;20460;-58
2021/03/02 00:03:12;;;;;;;55.60;25.50;;;;;;;2.20;89.06;103067.47;5137909;27;20452;-56
2021/03/02 00:05:39;;;;;;;61.47;26.20;;;;;;;2.13;88.24;103070.94;5136385;27;20470;-58
2021/03/02 00:08:07;;;;;;;57.80;26.40;;;;;;;2.09;87.46;103068.78;5132553;27;20571;-58
2021/03/02 00:10:34;;;;;;;50.90;22.77;;;;;;;2.08;87.56;103064.41;5136312;27;20490;-57
2021/03/02 00:13:02;;;;;;;48.40;24.53;;;;;;;2.01;88.09;103063.72;5146405;27;20528;-55
2021/03/02 00:15:28;;;;;;;55.30;26.00;;;;;;;1.74;88.81;103064.03;5148909;27;20459;-57
2021/03/02 00:17:57;;;;;;;57.60;24.50;;;;;;;1.78;89.24;103062.75;5144398;27;20530;-54
2021/03/02 00:20:24;;;;;;;52.77;24.03;;;;;;;1.97;88.70;103059.03;5150475;27;20492;-59
2021/03/02 00:22:58;;;;;;;55.37;25.30;;;;;;;2.01;88.19;103061.16;5143836;27;20473;-57
2021/03/02 00:25:27;;;;;;;47.17;23.13;;;;;;;2.00;87.74;103061.91;5145469;27;20479;-60
2021/03/02 00:27:55;;;;;;;64.57;26.10;;;;;;;2.01;87.18;103061.16;5132805;28;20937;-57
2021/03/02 00:30:23;;;;;;;70.93;28.03;;;;;;;1.99;88.00;103061.72;5134309;27;20875;-59
2021/03/02 00:33:05;;;;;;;54.30;26.80;;;;;;;2.06;88.15;103055.72;5137608;27;20503;-57
2021/03/02 00:35:32;;;;;;;59.10;26.67;;;;;;;2.00;87.89;103058.47;5138340;27;20448;-57
2021/03/02 00:37:59;;;;;;;63.90;29.13;;;;;;;1.99;87.49;103057.56;5137132;27;20458;-57
2021/03/02 00:40:26;;;;;;;58.17;29.07;;;;;;;1.93;87.35;103053.38;5138193;27;20812;-56
2021/03/02 00:42:53;;;;;;;83.37;36.40;;;;;;;2.01;87.67;103056.09;5136605;27;20556;-53
2021/03/02 00:45:21;;;;;;;67.03;27.43;;;;;;;1.98;87.86;103045.56;5137933;27;20480;-54
2021/03/02 00:47:50;;;;;;;70.70;31.43;;;;;;;1.99;88.49;103049.00;5132507;27;20465;-54
2021/03/02 00:50:16;;;;;;;53.63;25.77;;;;;;;1.82;88.79;103047.09;5138538;27;20435;-58
2021/03/02 00:52:43;;;;;;;66.03;25.70;;;;;;;1.84;89.52;103050.72;5136848;27;20538;-58
2021/03/02 00:55:10;;;;;;;68.93;29.23;;;;;;;1.87;89.85;103040.88;5137942;27;20426;-59
2021/03/02 00:57:38;;;;;;;58.93;24.33;;;;;;;1.80;89.50;103044.34;5136441;27;20488;-59
2021/03/02 01:00:06;;;;;;;64.63;26.67;;;;;;;1.85;90.64;103035.59;5138305;27;20457;-56
2021/03/02 01:02:33;;;;;;;64.73;28.70;;;;;;;2.01;91.16;103035.72;5137150;27;20463;-58
2021/03/02 01:05:01;;;;;;;58.77;25.03;;;;;;;1.91;89.44;103032.88;5138126;27;20479;-57
2021/03/02 01:07:28;;;;;;;59.23;25.60;;;;;;;1.87;88.98;103020.50;5136976;27;20483;-58
2021/03/02 01:09:54;;;;;;;56.87;22.57;;;;;;;1.98;88.22;103019.19;5138263;27;20489;-56
2021/03/02 01:12:26;;;;;;;52.23;21.83;;;;;;;1.93;87.56;103018.66;5131571;27;20464;-55
2021/03/02 01:14:53;;;;;;;64.03;24.30;;;;;;;1.87;88.16;103020.50;5137809;27;20427;-57
2021/03/02 01:17:20;;;;;;;54.97;22.93;;;;;;;1.95;88.20;103018.84;5138509;27;20503;-50
2021/03/02 01:19:47;;;;;;;57.10;24.47;;;;;;;2.00;87.39;103016.06;5129948;27;20530;-60
2021/03/02 01:22:14;;;;;;;54.40;22.07;;;;;;;1.95;87.42;103018.84;5128154;27;21287;-56
2021/03/02 01:24:41;;;;;;;62.33;22.63;;;;;;;1.89;87.55;103019.03;5136179;27;20533;-58
2021/03/02 01:27:08;;;;;;;59.57;25.83;;;;;;;1.86;87.55;103018.72;5138410;27;20817;-58
2021/03/02 01:29:35;;;;;;;50.47;23.30;;;;;;;1.68;87.88;103015.88;5137095;27;20554;-60
2021/03/02 01:32:01;;;;;;;51.80;23.17;;;;;;;1.67;87.83;103013.16;5135999;27;20473;-57
2021/03/02 01:34:28;;;;;;;53.37;24.17;;;;;;;1.47;87.97;103014.31;5124624;27;20443;-53
2021/03/02 01:36:55;;;;;;;59.00;23.93;;;;;;;1.26;88.58;103005.13;5138251;27;20562;-54
2021/03/02 01:39:22;;;;;;;59.33;24.17;;;;;;;1.23;88.78;103007.31;5136905;27;20533;-54
2021/03/02 01:41:49;;;;;;;51.10;22.97;;;;;;;1.34;88.01;103014.56;5137959;27;20940;-59
2021/03/02 01:44:16;;;;;;;53.03;22.53;;;;;;;1.35;87.08;103004.53;5135434;27;20482;-56
2021/03/02 01:46:44;;;;;;;53.17;23.20;;;;;;;1.23;86.38;103015.84;5138154;27;20876;-55
2021/03/02 01:49:11;;;;;;;55.00;24.07;;;;;;;1.27;86.04;103014.59;5136615;27;20472;-54
2021/03/02 01:51:38;;;;;;;46.80;22.17;;;;;;;1.24;85.47;103011.69;5137827;27;20426;-57
2021/03/02 01:54:04;;;;;;;51.50;23.63;;;;;;;1.17;86.66;103010.97;5135880;27;20538;-59
2021/03/02 01:56:32;;;;;;;45.07;20.50;;;;;;;1.01;87.07;103012.44;5137358;27;20897;-57
2021/03/02 01:58:59;;;;;;;44.73;21.03;;;;;;;0.90;87.57;103014.66;5135864;27;20454;-56
2021/03/02 02:01:26;;;;;;;56.30;24.03;;;;;;;0.88;87.41;103013.53;5137663;27;20460;-54
2021/03/02 02:03:56;;;;;;;44.47;20.60;;;;;;;0.77;87.95;103012.28;5136372;27;20816;-56
2021/03/02 02:06:27;;;;;;;51.40;23.37;;;;;;;0.75;87.41;103016.28;5137480;27;20464;-55
2021/03/02 02:08:58;;;;;;;57.00;24.97;;;;;;;0.59;86.98;103013.59;5136259;27;20504;-55
2021/03/02 02:11:37;;;;;;;46.08;21.20;;;;;;;0.73;87.23;103014.31;5137364;27;20452;-56
2021/03/02 02:14:09;;;;;;;49.83;22.40;;;;;;;0.52;87.34;103014.47;5136195;27;20258;-53
2021/03/02 02:16:38;;;;;;;46.15;22.20;;;;;;;0.50;88.33;103012.47;5137932;27;20464;-53
2021/03/02 02:19:06;;;;;;;47.45;22.23;;;;;;;0.49;88.48;103008.13;5136489;27;20238;-55
2021/03/02 02:21:40;;;;;;;42.27;21.10;;;;;;;0.52;89.05;103014.47;5138042;27;20196;-59
2021/03/02 02:24:12;;;;;;;48.72;22.05;;;;;;;0.51;88.63;103010.13;5136123;27;20457;-57
2021/03/02 02:26:52;;;;;;;52.13;24.75;;;;;;;0.45;88.33;103011.94;5137798;27;20294;-53
2021/03/02 02:29:21;;;;;;;46.20;23.17;;;;;;;0.55;86.60;103007.97;5136492;27;20221;-55
2021/03/02 02:31:49;;;;;;;50.05;23.50;;;;;;;0.67;85.92;103005.22;5137855;27;20452;-56
2021/03/02 02:34:18;;;;;;;50.70;24.87;;;;;;;0.44;84.85;103006.66;5136224;27;20230;-55
2021/03/02 02:36:46;;;;;;;56.88;23.45;;;;;;;0.43;85.51;103007.41;5137491;27;20910;-59
2021/03/02 02:39:13;;;;;;;59.92;23.52;;;;;;;0.50;85.26;103007.38;5136141;27;20235;-54
2021/03/02 02:41:40;;;;;;;47.97;23.08;;;;;;;0.48;85.50;103006.31;5137562;27;20215;-59
2021/03/02 02:44:20;;;;;;;50.20;24.20;;;;;;;0.27;85.03;103015.75;5135619;27;20309;-53
2021/03/02 02:46:48;;;;;;;58.35;23.35;;;;;;;0.14;86.17;103018.41;5138020;27;20230;-54
2021/03/02 02:49:15;;;;;;;50.53;22.65;;;;;;;0.10;86.54;103021.34;5135855;27;20231;-55
2021/03/02 02:51:42;;;;;;;54.90;25.00;;;;;;;0.10;85.52;103024.75;5136934;27;20202;-54
2021/03/02 02:54:10;;;;;;;54.70;22.60;;;;;;;-0.03;86.44;103029.09;5135542;27;20234;-56
2021/03/02 02:56:38;;;;;;;50.45;22.90;;;;;;;0.05;85.27;103017.34;5134306;27;20452;-56
2021/03/02 02:59:08;;;;;;;49.95;23.45;;;;;;;0.02;86.32;103017.88;5136429;27;20550;-55
2021/03/02 03:01:41;;;;;;;47.03;22.17;;;;;;;-0.16;86.07;103012.38;5137644;27;20293;-56
2021/03/02 03:04:11;;;;;;;44.67;21.50;;;;;;;-0.06;86.89;103008.44;5135745;27;20234;-53
2021/03/02 03:06:40;;;;;;;53.63;23.23;;;;;;;-0.16;87.31;103012.38;5137756;27;20199;-54
2021/03/02 03:09:07;;;;;;;52.53;23.85;;;;;;;-0.21;86.70;103012.53;5136196;27;20329;-58
2021/03/02 03:11:37;;;;;;;52.58;23.27;;;;;;;-0.17;87.57;103010.56;5137513;27;20199;-55
2021/03/02 03:14:06;;;;;;;44.35;20.63;;;;;;;-0.26;86.50;103011.97;5135379;27;20317;-57
2021/03/02 03:16:34;;;;;;;49.13;22.80;;;;;;;-0.22;85.91;103009.09;5137323;27;20203;-56
2021/03/02 03:19:02;;;;;;;45.22;22.13;;;;;;;-0.23;86.11;103019.03;5135964;27;20605;-56
2021/03/02 03:21:29;;;;;;;47.05;21.85;;;;;;;-0.27;86.04;103012.69;5137396;27;20297;-54
2021/03/02 03:23:56;;;;;;;43.33;20.75;;;;;;;-0.36;86.71;103011.59;5135590;27;20317;-52
2021/03/02 03:26:25;;;;;;;48.08;22.00;;;;;;;-0.25;85.87;103011.28;5136814;27;20494;-53
2021/03/02 03:28:53;;;;;;;49.97;21.60;;;;;;;-0.46;86.67;103014.63;5135689;27;20317;-56
2021/03/02 03:31:20;;;;;;;47.45;22.02;;;;;;;-0.55;86.12;103019.47;5137011;27;20616;-57
2021/03/02 03:33:48;;;;;;;47.72;21.23;;;;;;;-0.76;87.21;103003.44;5135437;27;20238;-56
2021/03/02 03:36:15;;;;;;;46.78;20.65;;;;;;;-0.56;86.39;103010.06;5136891;27;20199;-53
2021/03/02 03:38:42;;;;;;;45.90;22.08;;;;;;;-0.80;87.74;103015.50;5124896;27;20242;-55
2021/03/02 03:41:08;;;;;;;43.88;19.75;;;;;;;-0.82;87.89;103017.88;5136547;27;20299;-56
2021/03/02 03:43:35;;;;;;;45.55;20.30;;;;;;;-0.84;88.04;103011.69;5135354;27;20256;-54
2021/03/02 03:46:02;;;;;;;48.20;20.13;;;;;;;-0.92;87.38;103010.72;5136626;27;20222;-58
2021/03/02 03:48:29;;;;;;;44.30;19.90;;;;;;;-0.98;88.19;103009.97;5135225;27;20246;-58
2021/03/02 03:50:57;;;;;;;46.30;20.30;;;;;;;-1.06;88.28;103006.50;5136938;27;20290;-56
2021/03/02 03:53:24;;;;;;;44.58;19.88;;;;;;;-1.13;88.35;103011.53;5135375;27;20241;-54
2021/03/02 03:55:52;;;;;;;50.60;20.17;;;;;;;-1.14;88.42;103008.06;5136252;27;20593;-56
2021/03/02 03:58:22;;;;;;;37.90;18.08;;;;;;;-1.19;88.11;103020.88;5135002;27;20246;-57
2021/03/02 04:00:50;;;;;;;47.90;20.45;;;;;;;-1.08;87.14;103010.44;5135053;27;20245;-56
2021/03/02 04:03:18;;;;;;;48.33;19.60;;;;;;;-1.22;87.63;103018.88;5131458;27;20237;-56
2021/03/02 04:05:46;;;;;;;42.15;18.85;;;;;;;-1.24;87.60;103011.06;5135360;27;20223;-53
2021/03/02 04:08:14;;;;;;;55.25;22.40;;;;;;;-1.35;89.05;103006.28;5134615;27;20509;-58
2021/03/02 04:10:42;;;;;;;41.30;19.52;;;;;;;-1.44;89.09;103010.19;5135810;27;20209;-56
2021/03/02 04:13:11;;;;;;;52.42;21.52;;;;;;;-1.30;88.71;103007.78;5134672;27;20643;-56
2021/03/02 04:15:38;;;;;;;52.22;22.98;;;;;;;-1.17;89.34;103007.69;5135674;28;20217;-56
2021/03/02 04:18:09;;;;;;;52.38;23.65;;;;;;;-1.08;88.56;102997.78;5134571;28;20230;-56
2021/03/02 04:20:36;;;;;;;42.63;20.48;;;;;;;-1.29;88.53;103004.50;5136111;28;20252;-56
2021/03/02 04:23:04;;;;;;;52.90;20.63;;;;;;;-1.23;88.53;103010.34;5134388;28;20245;-53
2021/03/02 04:25:32;;;;;;;45.33;21.60;;;;;;;-1.25;89.04;103009.25;5135489;28;20226;-53
2021/03/02 04:27:59;;;;;;;52.83;21.80;;;;;;;-1.48;89.49;103007.97;5134470;28;20469;-56
2021/03/02 04:30:26;;;;;;;59.10;25.65;;;;;;;-1.47;90.18;103008.19;5135901;28;20651;-54
2021/03/02 04:32:52;;;;;;;55.17;21.45;;;;;;;-1.38;89.53;102998.31;5134377;28;20234;-59
2021/03/02 04:35:20;;;;;;;56.45;22.70;;;;;;;-1.41;89.68;103000.44;5135113;28;20236;-57
2021/03/02 04:37:46;;;;;;;61.78;22.58;;;;;;;-1.46;89.81;102993.88;5149945;27;20328;-56
2021/03/02 04:40:14;;;;;;;71.47;23.50;;;;;;;-1.48;89.83;103000.38;5156318;27;20599;-50
2021/03/02 04:42:42;;;;;;;72.95;24.77;;;;;;;-1.59;89.57;102993.97;5144227;27;20198;-57
2021/03/02 04:45:09;;;;;;;52.53;22.73;;;;;;;-1.58;90.33;102999.22;5142028;27;20222;-53
2021/03/02 04:47:37;;;;;;;48.28;20.85;;;;;;;-1.61;89.99;103003.88;5154935;27;20313;-56
2021/03/02 04:50:05;;;;;;;46.20;19.13;;;;;;;-1.60;90.23;102993.03;5147724;27;20233;-58
2021/03/02 04:52:31;;;;;;;49.00;20.45;;;;;;;-1.51;89.68;102991.69;5155046;27;20209;-52
2021/03/02 04:54:58;;;;;;;46.33;20.85;;;;;;;-1.61;89.46;102997.91;5156024;27;20233;-58
2021/03/02 04:57:25;;;;;;;42.42;18.60;;;;;;;-1.63;89.45;102997.72;5154232;27;20321;-51
2021/03/02 04:59:52;;;;;;;44.60;20.83;;;;;;;-1.79;89.74;103005.88;5156267;27;20260;-57
2021/03/02 05:02:19;;;;;;;48.17;20.80;;;;;;;-1.78;89.85;103007.69;5155079;27;20210;-56
2021/03/02 05:04:45;;;;;;;49.63;22.23;;;;;;;-1.84;90.20;103006.03;5133519;28;20312;-57
2021/03/02 05:07:12;;;;;;;51.63;20.88;;;;;;;-2.01;91.01;103011.47;5135206;28;20203;-56
2021/03/02 05:09:39;;;;;;;54.40;21.58;;;;;;;-2.08;90.97;103010.66;5133993;28;20244;-57
2021/03/02 05:12:06;;;;;;;54.92;20.40;;;;;;;-2.06;90.97;103006.69;5135601;28;20207;-53
2021/03/02 05:14:32;;;;;;;52.78;20.77;;;;;;;-2.08;91.24;103000.56;5133690;28;20219;-56
2021/03/02 05:17:00;;;;;;;53.50;22.15;;;;;;;-2.16;91.26;103006.22;5135625;27;20206;-55
2021/03/02 05:19:29;;;;;;;52.75;22.33;;;;;;;-2.20;91.58;103011.63;5137129;27;20241;-57
2021/03/02 05:21:56;;;;;;;53.85;22.77;;;;;;;-2.11;91.05;103014.44;5144375;27;20217;-55
2021/03/02 05:24:22;;;;;;;47.53;21.48;;;;;;;-2.19;90.74;103010.91;5157443;27;20651;-57
2021/03/02 05:26:49;;;;;;;45.50;21.08;;;;;;;-2.22;90.65;103013.00;5159486;27;20210;-51
2021/03/02 05:29:16;;;;;;;48.60;22.27;;;;;;;-2.26;91.47;103013.34;5140007;27;20655;-56
2021/03/02 05:31:42;;;;;;;50.25;22.20;;;;;;;-2.23;91.78;103008.66;5138975;27;20202;-57
2021/03/02 05:34:10;;;;;;;56.55;22.80;;;;;;;-2.19;91.33;103010.91;5137080;27;20230;-55
2021/03/02 05:36:37;;;;;;;50.72;22.55;;;;;;;-2.20;91.08;103014.13;5139350;27;20294;-58
2021/03/02 05:39:05;;;;;;;55.45;21.70;;;;;;;-2.22;90.84;103011.41;5147992;27;20651;-55
2021/03/02 05:41:32;;;;;;;52.75;22.02;;;;;;;-2.26;91.20;103014.25;5159153;27;20206;-55
2021/03/02 05:43:58;;;;;;;49.95;22.00;;;;;;;-2.14;90.69;103017.47;5157354;27;20248;-49
2021/03/02 05:46:33;;;;;;;57.95;22.92;;;;;;;-2.13;90.69;103016.75;5158842;27;20229;-58
2021/03/02 05:49:01;;;;;;;54.10;22.73;;;;;;;-2.10;91.09;103014.59;5157460;27;20253;-58
2021/03/02 05:51:28;;;;;;;59.67;23.42;;;;;;;-2.05;90.57;103013.56;5159264;27;20206;-57
2021/03/02 05:53:55;;;;;;;76.30;22.45;;;;;;;-2.16;91.58;103011.28;5149978;27;20269;-56
2021/03/02 05:56:22;;;;;;;89.22;24.50;;;;;;;-2.20;92.23;103014.13;5153615;27;20206;-53
2021/03/02 05:58:51;;;;;;;87.03;25.55;;;;;;;-2.23;92.01;103008.66;5157743;27;20670;-58
2021/03/02 06:01:17;;;;;;;82.07;25.92;;;;;;;-2.25;92.25;103003.41;5158624;27;20263;-55
2021/03/02 06:03:44;;;;;;;116.50;25.95;;;;;;;-2.35;92.19;103003.84;5141892;27;20235;-56
2021/03/02 06:06:12;;;;;;;116.15;26.05;;;;;;;-2.37;92.18;103005.25;5137863;27;20237;-55
2021/03/02 06:08:39;;;;;;;107.70;23.33;;;;;;;-2.31;92.68;103010.19;5136932;27;20245;-56
2021/03/02 06:11:25;;;;;;;129.75;25.80;;;;;;;-2.43;92.78;103009.53;5138312;27;20202;-56
2021/03/02 06:13:52;;;;;;;199.75;31.55;;;;;;;-2.38;93.18;103005.06;5136577;27;20380;-53
2021/03/02 06:16:19;;;;;;;110.78;24.90;;;;;;;-2.35;93.00;103011.41;5138269;27;20287;-56
2021/03/02 06:18:50;;;;;;;133.77;27.00;;;;;;;-2.49;93.12;103003.66;5136676;27;20239;-55
2021/03/02 06:21:17;;;;;;;79.03;25.23;;;;;;;-2.45;93.80;103004.25;5138195;27;20202;-55
2021/03/02 06:23:49;;;;;;;115.80;25.60;;;;;;;-2.42;93.59;103002.84;5153318;27;20638;-56
2021/03/02 06:26:24;;;;;;;107.68;25.13;;;;;;;-2.48;92.94;103005.47;5157479;27;20222;-54
2021/03/02 06:28:53;;;;;;;103.07;25.38;;;;;;;-2.57;93.08;102995.06;5157107;27;20519;-56
2021/03/02 06:31:33;;;;;;;80.38;24.83;;;;;;;-2.66;93.34;102994.81;5158284;27;20202;-56
2021/03/02 06:34:05;;;;;;;83.82;26.88;;;;;;;-2.51;93.56;102997.50;5155837;27;20286;-56
2021/03/02 06:36:32;;;;;;;72.45;23.30;;;;;;;-2.60;93.17;103004.78;5157816;27;20619;-51
2021/03/02 06:39:23;;;;;;;158.57;26.77;;;;;;;-2.54;93.12;103002.16;5154934;27;20603;-54
2021/03/02 06:41:50;;;;;;;66.72;24.55;;;;;;;-2.47;92.93;103004.75;5149824;27;20550;-53
2021/03/02 06:44:16;;;;;;;82.63;22.40;;;;;;;-2.46;92.97;103004.09;5156504;27;20325;-54
2021/03/02 06:46:43;;;;;;;87.32;23.90;;;;;;;-2.49;93.08;103013.78;5157846;27;20230;-52
2021/03/02 06:49:10;;;;;;;80.55;25.33;;;;;;;-2.52;92.92;103013.41;5153022;27;20588;-52
2021/03/02 06:51:38;;;;;;;91.70;27.30;;;;;;;-2.41;93.94;103013.16;5145738;27;20639;-58
2021/03/02 06:54:07;;;;;;;104.97;25.55;;;;;;;-2.33;93.65;103015.09;5135527;27;20226;-54
2021/03/02 06:56:34;;;;;;;109.65;24.17;;;;;;;-2.42;93.12;103011.34;5137297;27;20222;-52
2021/03/02 06:59:14;;;;;;;189.32;27.58;;;;;;;-2.41;93.03;103013.16;5136161;27;20234;-52
2021/03/02 07:01:42;;;;;;;114.13;25.85;;;;;;;-2.31;93.73;103010.19;5137126;27;20198;-57
2021/03/02 07:04:10;;;;;;;120.68;25.33;;;;;;;-2.32;93.00;103014.38;5135493;27;20230;-56
2021/03/02 07:06:39;;;;;;;84.53;26.00;;;;;;;-2.33;93.32;103015.09;5137097;27;20219;-56
2021/03/02 07:09:07;;;;;;;111.00;27.48;;;;;;;-2.27;93.70;103024.19;5135597;27;20234;-56
2021/03/02 07:11:38;;;;;;;76.45;23.48;;;;;;;-2.22;93.22;103021.53;5145247;27;20201;-57
2021/03/02 07:14:07;;;;;;;79.43;23.23;;;;;;;-2.15;92.89;103024.84;5155896;27;20233;-54
2021/03/02 07:16:35;;;;;;;101.97;25.35;;;;;;;-2.14;92.71;103030.13;5156452;27;20220;-55
2021/03/02 07:19:03;;;;;;;80.22;24.08;;;;;;;-2.11;93.26;103025.44;5118233;27;20230;-58
2021/03/02 07:21:35;;;;;;;75.80;22.92;;;;;;;-2.04;93.26;103019.56;5136387;27;20294;-52
2021/03/02 07:24:04;;;;;;;114.60;24.13;;;;;;;-1.98;93.24;103027.03;5123958;27;20227;-54
2021/03/02 07:26:33;;;;;;;92.68;22.63;;;;;;;-1.94;93.41;103024.19;5139571;27;20309;-58
2021/03/02 07:29:01;;;;;;;79.28;23.98;;;;;;;-2.04;93.16;103027.16;5149663;27;20241;-53
2021/03/02 07:31:28;;;;;;;61.13;24.23;;;;;;;-1.88;93.46;103030.03;5143751;27;20205;-56
2021/03/02 07:33:55;;;;;;;68.65;21.13;;;;;;;-1.70;92.76;103033.13;5143380;27;20230;-54
2021/03/02 07:36:23;;;;;;;59.22;20.75;;;;;;;-1.72;92.48;103026.94;5148387;27;20545;-55
2021/03/02 07:39:18;;;;;;;49.33;22.40;;;;;;;-1.83;92.33;103028.09;5151369;27;20241;-56
2021/03/02 07:41:46;;;;;;;59.80;22.75;;;;;;;-1.78;92.53;103032.13;5144430;27;20206;-55
2021/03/02 07:44:13;;;;;;;53.53;20.55;;;;;;;-1.71;92.37;103038.88;5149233;27;20240;-55
2021/03/02 07:46:50;;;;;;;58.30;21.50;;;;;;;-1.75;92.97;103034.13;5150470;27;20236;-54
2021/03/02 07:49:36;;;;;;;69.97;22.05;;;;;;;-1.72;92.89;103037.06;5152366;27;20238;-55
2021/03/02 07:52:19;;;;;;;76.88;22.05;;;;;;;-1.68;93.29;103039.28;5150204;27;20548;-52
2021/03/02 07:54:46;;;;;;;50.17;21.27;;;;;;;-1.59;93.31;103040.44;5150824;27;20551;-53
2021/03/02 07:57:29;;;;;;;50.03;20.83;;;;;;;-1.45;93.07;103043.84;5152469;27;20565;-53
2021/03/02 08:00:21;;;;;;;54.70;20.40;;;;;;;-1.34;92.99;103046.09;5149640;27;20226;-59
2021/03/02 08:03:29;;;;;;;62.03;23.30;;;;;;;-1.33;92.84;103060.59;5152792;27;20320;-60
2021/03/02 08:05:58;;;;;;;60.35;24.08;;;;;;;-1.22;94.01;103055.22;5145915;27;20249;-60
2021/03/02 08:08:34;;;;;;;50.28;20.95;;;;;;;-1.25;93.44;103059.94;5136259;27;20242;-60
2021/03/02 08:11:30;;;;;;;61.88;21.42;;;;;;;-1.04;93.09;103055.75;5151955;27;20634;-56
2021/03/02 08:13:58;;;;;;;44.15;19.40;;;;;;;-1.04;92.85;103055.75;5150313;27;20234;-58
2021/03/02 08:16:53;;;;;;;54.05;22.85;;;;;;;-1.03;93.09;103057.56;5147099;27;20194;-60
2021/03/02 08:19:35;;;;;;;58.55;22.02;;;;;;;-1.05;92.83;103064.06;5144791;27;20250;-58
2021/03/02 08:22:02;;;;;;;54.78;21.23;;;;;;;-0.96;92.94;103065.19;5150035;27;20623;-55
2021/03/02 08:24:48;;;;;;;58.63;21.60;;;;;;;-0.89;93.07;103065.97;5134274;28;20611;-54
2021/03/02 08:27:15;;;;;;;49.45;21.20;;;;;;;-0.80;93.06;103069.69;5123342;28;20305;-58
2021/03/02 08:29:50;;;;;;;49.97;20.70;;;;;;;-0.71;92.76;103059.78;5130478;27;20525;-60
2021/03/02 08:32:17;;;;;;;57.13;22.98;;;;;;;-0.57;92.67;103071.59;5152110;27;20205;-53
2021/03/02 08:34:44;;;;;;;56.80;23.05;;;;;;;-0.34;92.41;103055.78;5126783;27;20239;-53
2021/03/02 08:37:11;;;;;;;48.85;21.77;;;;;;;-0.39;92.64;103056.84;5145460;27;20198;-56
2021/03/02 08:39:39;;;;;;;52.50;23.58;;;;;;;-0.27;93.41;103058.34;5135447;27;20233;-57
2021/03/02 08:42:06;;;;;;;56.55;23.85;;;;;;;-0.28;92.51;103059.09;5149877;27;20202;-55
2021/03/02 08:44:33;;;;;;;46.70;21.60;;;;;;;-0.24;91.99;103061.28;5141354;27;20654;-54
2021/03/02 08:47:01;;;;;;;46.85;21.85;;;;;;;-0.07;92.10;103055.72;5153301;27;20233;-53
2021/03/02 08:49:28;;;;;;;44.97;20.95;;;;;;;-0.07;92.52;103054.81;5139407;27;20365;-57
2021/03/02 08:51:58;;;;;;;56.00;22.08;;;;;;;0.15;92.44;103059.97;5149882;27;20208;-55
2021/03/02 08:54:25;;;;;;;43.15;20.10;;;;;;;0.32;92.18;103055.31;5155073;27;20229;-56
2021/03/02 08:56:59;;;;;;;40.80;18.55;;;;;;;0.37;91.95;103064.34;5157211;27;20218;-54
2021/03/02 08:59:29;;;;;;;38.05;18.83;;;;;;;0.58;91.90;103065.13;5155653;27;20260;-60
2021/03/02 09:01:56;;;;;;;35.58;18.63;;;;;;;0.59;91.71;103056.78;5155133;27;20305;-59
2021/03/02 09:04:31;;;;;;;43.33;19.92;;;;;;;0.80;91.85;103058.41;5153695;27;20233;-56
2021/03/02 09:06:58;;;;;;;89.00;37.47;;;;;;;0.91;92.52;103052.06;5156742;27;20264;-57
2021/03/02 09:09:26;;;;;;;76.60;32.65;;;;;;;0.88;91.83;103055.88;5152857;27;20317;-57
2021/03/02 09:11:53;;;;;;;59.72;27.00;;;;;;;1.13;91.95;103062.19;5156648;27;20210;-60
2021/03/02 09:14:21;;;;;;;61.33;27.90;;;;;;;1.23;91.83;103055.66;5152025;27;20241;-57
2021/03/02 09:16:48;;;;;;;61.08;28.20;;;;;;;1.16;91.19;103061.63;5152666;27;20206;-54
2021/03/02 09:19:24;;;;;;;63.75;26.15;;;;;;;1.19;91.24;103057.81;5147275;27;20240;-60
2021/03/02 09:21:57;;;;;;;52.70;23.20;;;;;;;1.18;90.84;103065.28;5154837;27;20221;-54
2021/03/02 09:24:39;;;;;;;52.43;24.43;;;;;;;1.21;90.96;103058.94;5137003;27;20486;-60
2021/03/02 09:27:07;;;;;;;51.70;22.90;;;;;;;1.43;90.96;103060.53;5138560;27;20459;-54
2021/03/02 09:29:38;;;;;;;62.17;26.60;;;;;;;1.70;90.93;103056.78;5137338;27;20453;-55
2021/03/02 09:32:06;;;;;;;44.27;20.30;;;;;;;1.84;90.19;103055.81;5138656;27;20216;-56
2021/03/02 09:34:34;;;;;;;48.10;21.50;;;;;;;1.95;89.63;103054.50;5137185;27;20753;-56
2021/03/02 09:37:04;;;;;;;43.37;20.47;;;;;;;1.97;89.51;103056.50;5138848;27;20781;-56
2021/03/02 09:39:31;;;;;;;43.40;19.23;;;;;;;2.00;89.69;103051.72;5132968;27;20839;-58
2021/03/02 09:41:58;;;;;;;41.87;20.87;;;;;;;2.28;89.05;103054.84;5152636;27;20438;-57
2021/03/02 09:44:31;;;;;;;41.70;20.07;;;;;;;2.39;88.27;103050.97;5144019;27;20758;-59
2021/03/02 09:47:00;;;;;;;41.73;19.50;;;;;;;2.53;88.08;103052.50;5156563;27;20562;-56
2021/03/02 09:49:44;;;;;;;44.23;22.13;;;;;;;2.54;88.10;103045.75;5141476;27;20479;-57
2021/03/02 09:52:37;;;;;;;50.07;20.53;;;;;;;2.76;87.60;103049.03;5155041;27;20883;-57
2021/03/02 09:55:29;;;;;;;41.47;20.50;;;;;;;2.83;87.53;103048.06;5155441;27;20469;-58
2021/03/02 09:58:07;;;;;;;48.43;22.57;;;;;;;2.97;87.34;103045.38;5150864;27;20454;-60
2021/03/02 10:00:35;;;;;;;56.37;23.57;;;;;;;3.21;86.86;103045.31;5153256;27;20438;-59
2021/03/02 10:03:06;;;;;;;49.70;22.20;;;;;;;3.17;86.49;103038.09;5141596;27;20557;-58
2021/03/02 10:05:36;;;;;;;50.50;22.93;;;;;;;3.38;86.33;103044.59;5153362;27;20461;-60
2021/03/02 10:08:22;;;;;;;48.67;22.00;;;;;;;3.51;86.02;103039.16;5153910;27;20446;-60
2021/03/02 10:10:50;;;;;;;45.50;21.33;;;;;;;3.67;85.41;103041.72;5154220;27;20471;-61
2021/03/02 10:13:28;;;;;;;48.10;22.03;;;;;;;3.80;85.23;103036.28;5145129;27;20924;-56
2021/03/02 10:16:14;;;;;;;50.00;22.57;;;;;;;3.96;85.08;103032.78;5144320;27;20479;-59
2021/03/02 10:18:55;;;;;;;57.23;23.40;;;;;;;4.06;84.87;103035.56;5153255;27;20518;-58
2021/03/02 10:21:23;;;;;;;50.03;21.20;;;;;;;4.25;84.34;103032.38;5153984;27;20459;-57
2021/03/02 10:23:51;;;;;;;45.30;21.70;;;;;;;4.42;84.02;103031.56;5144179;27;20559;-60
2021/03/02 10:26:24;;;;;;;50.43;23.33;;;;;;;4.54;83.92;103037.00;5153831;27;20493;-59
2021/03/02 10:28:50;;;;;;;46.83;22.37;;;;;;;4.72;82.82;103033.78;5153595;27;20975;-59
2021/03/02 10:31:17;;;;;;;48.53;22.13;;;;;;;4.69;82.79;103036.06;5154227;27;20466;-61
2021/03/02 10:33:45;;;;;;;41.23;19.20;;;;;;;4.71;82.57;103037.09;5125825;27;20977;-59
2021/03/02 10:36:20;;;;;;;45.07;20.43;;;;;;;4.88;82.52;103032.81;5138331;27;20434;-56
2021/03/02 10:38:47;;;;;;;40.97;19.77;;;;;;;4.91;82.23;103035.66;5135841;27;20474;-60
2021/03/02 10:41:14;;;;;;;49.60;21.77;;;;;;;4.98;81.80;103026.97;5141589;27;20464;-62
2021/03/02 10:43:41;;;;;;;53.47;23.23;;;;;;;5.17;81.69;103033.94;5148467;27;20493;-60
2021/03/02 10:46:07;;;;;;;47.83;22.47;;;;;;;5.51;81.96;103030.53;5152821;27;20479;-60
2021/03/02 10:48:34;;;;;;;50.80;22.10;;;;;;;5.66;81.13;103043.03;5125191;27;20464;-58
2021/03/02 10:51:02;;;;;;;41.20;20.33;;;;;;;5.88;81.05;103040.91;5151508;27;20456;-61
2021/03/02 10:53:29;;;;;;;51.33;20.83;;;;;;;5.72;79.84;103038.50;5132091;27;20924;-55
2021/03/02 10:55:55;;;;;;;44.70;21.60;;;;;;;5.74;80.26;103030.97;5152023;27;20741;-59
2021/03/02 10:58:24;;;;;;;49.63;22.70;;;;;;;5.95;80.71;103030.50;5151679;27;20483;-60
2021/03/02 11:00:51;;;;;;;41.20;20.70;;;;;;;6.16;79.60;103028.22;5154895;27;20459;-60
2021/03/02 11:03:18;;;;;;;33.50;17.60;;;;;;;5.96;79.01;103028.84;5154510;27;20843;-59
2021/03/02 11:05:45;;;;;;;36.33;16.60;;;;;;;5.87;79.07;103027.94;5155920;27;20550;-60
2021/03/02 11:08:12;;;;;;;42.17;19.47;;;;;;;6.15;78.98;103020.41;5138716;27;20521;-59
2021/03/02 11:10:38;;;;;;;42.47;20.77;;;;;;;6.36;78.33;103031.78;5139169;27;20460;-63
2021/03/02 11:13:06;;;;;;;40.33;19.30;;;;;;;6.22;78.35;103021.13;5135847;27;20546;-56
2021/03/02 11:15:33;;;;;;;35.07;18.57;;;;;;;6.26;78.06;103022.31;5148710;27;20544;-60
2021/03/02 11:18:00;;;;;;;37.50;19.83;;;;;;;6.44;77.94;103017.13;5149819;27;20481;-58
2021/03/02 11:20:34;;;;;;;35.90;18.43;;;;;;;6.52;77.48;103012.75;5151380;27;20455;-57
2021/03/02 11:23:01;;;;;;;41.60;20.20;;;;;;;6.60;76.74;103010.16;5141788;27;20485;-59